Time;durP1;ratioP1;P1;durP2;ratioP2;P2;SDS_P1;SDS_P2;PMS_P1;PMS_P2;Temp;Humidity;BMP_temperature;BMP_pressure;BME280_temperature;BME280_humidity;BME280_pressure;Samples;Min_cycle;Max_cycle;Signal;HPM_P1;HPM_P2
2022/12/25 00:00:33;;;;;;;4.43;1.75;;;23.30;40.40;;;;;;5062275;28;20084;-69
2022/12/25 00:03:00;;;;;;;5.40;1.65;;;23.20;40.60;;;;;;5063870;28;20080;-69
2022/12/25 00:05:26;;;;;;;7.80;1.90;;;23.10;40.80;;;;;;5070578;28;20103;-70
2022/12/25 00:07:52;;;;;;;8.57;1.55;;;23.00;40.90;;;;;;5059896;28;20077;-69
2022/12/25 00:10:19;;;;;;;12.50;1.67;;;22.90;41.10;;;;;;5057295;28;20541;-68
2022/12/25 00:12:45;;;;;;;19.65;1.77;;;22.70;41.50;;;;;;5064277;28;20100;-70
2022/12/25 00:15:12;;;;;;;9.15;1.70;;;22.60;41.70;;;;;;5066720;28;20077;-69
2022/12/25 00:17:38;;;;;;;6.00;1.67;;;22.50;41.90;;;;;;5064241;28;20546;-70
2022/12/25 00:20:06;;;;;;;8.23;2.22;;;22.40;41.80;;;;;;5062709;28;20419;-65
2022/12/25 00:22:32;;;;;;;9.73;2.80;;;22.30;41.70;;;;;;5065450;28;20111;-68
2022/12/25 00:24:59;;;;;;;10.48;3.50;;;22.20;41.90;;;;;;5058241;28;20069;-67
2022/12/25 00:27:25;;;;;;;26.13;3.70;;;22.00;41.80;;;;;;5061876;28;20592;-69
2022/12/25 00:29:52;;;;;;;16.58;3.30;;;21.90;53.50;;;;;;5064534;28;20077;-69
2022/12/25 00:32:18;;;;;;;11.60;3.30;;;21.80;42.50;;;;;;5062422;28;20068;-68
2022/12/25 00:34:47;;;;;;;20.50;3.50;;;21.70;43.00;;;;;;5062918;28;20091;-69
2022/12/25 00:37:13;;;;;;;17.85;4.70;;;21.60;43.40;;;;;;5058053;28;20086;-69
2022/12/25 00:39:39;;;;;;;31.95;13.32;;;20.90;49.80;;;;;;5061237;28;20523;-70
2022/12/25 00:42:18;;;;;;;35.55;11.85;;;;;;;;;;5058932;28;20077;-70
2022/12/25 00:44:49;;;;;;;33.67;10.80;;;20.50;58.60;;;;;;5059089;28;20074;-69
2022/12/25 00:47:17;;;;;;;23.92;8.77;;;20.20;67.40;;;;;;5060983;28;20139;-70
2022/12/25 00:49:43;;;;;;;20.23;7.28;;;20.80;46.80;;;;;;5060872;28;20061;-71
2022/12/25 00:52:10;;;;;;;14.13;7.15;;;;;;;;;;5057976;28;20208;-72
2022/12/25 00:54:37;;;;;;;28.25;7.78;;;20.30;47.30;;;;;;5060566;28;20438;-70
2022/12/25 00:57:04;;;;;;;27.98;6.07;;;20.30;47.80;;;;;;5075986;28;20511;-70
2022/12/25 00:59:32;;;;;;;25.65;6.78;;;20.20;48.30;;;;;;5082441;28;20073;-68
2022/12/25 01:02:22;;;;;;;17.60;5.47;;;20.10;49.10;;;;;;5077627;28;20127;-69
2022/12/25 01:04:49;;;;;;;13.57;4.97;;;19.90;49.30;;;;;;5085575;28;20064;-68
2022/12/25 01:07:15;;;;;;;21.27;5.32;;;19.80;49.50;;;;;;5077743;28;20175;-70
2022/12/25 01:12:29;;;;;;;27.50;5.10;;;19.20;56.40;;;;;;5082103;28;20142;-70
2022/12/25 01:14:55;;;;;;;22.40;5.50;;;19.30;50.20;;;;;;5080707;28;20064;-67
2022/12/25 01:17:22;;;;;;;21.80;5.28;;;19.20;50.60;;;;;;5084015;28;20087;-68
2022/12/25 01:19:48;;;;;;;17.08;5.13;;;19.10;51.20;;;;;;5080091;28;20514;-67
2022/12/25 01:22:15;;;;;;;21.75;5.57;;;19.00;51.50;;;;;;5076773;28;20103;-71
2022/12/25 01:24:43;;;;;;;18.05;5.03;;;18.90;51.90;;;;;;5081364;28;20143;-69
2022/12/25 01:27:10;;;;;;;16.80;4.85;;;18.80;52.10;;;;;;5080940;28;20072;-70
2022/12/25 01:29:37;;;;;;;20.13;5.00;;;18.70;52.20;;;;;;5083307;28;20156;-71
2022/12/25 01:32:04;;;;;;;23.63;5.38;;;18.70;52.80;;;;;;5084828;28;20107;-66
2022/12/25 01:34:30;;;;;;;20.90;5.28;;;18.60;52.20;;;;;;5081757;28;20073;-67
2022/12/25 01:36:57;;;;;;;23.15;5.63;;;18.50;52.20;;;;;;5081068;28;20092;-65
2022/12/25 01:39:23;;;;;;;25.45;5.68;;;18.40;52.80;;;;;;5077420;28;20069;-64
2022/12/25 01:41:50;;;;;;;31.48;6.15;;;18.30;53.10;;;;;;5085715;28;20073;-66
2022/12/25 01:44:21;;;;;;;29.30;6.60;;;18.30;53.20;;;;;;5081608;28;20152;-66
2022/12/25 01:46:47;;;;;;;32.28;6.28;;;18.20;53.30;;;;;;5084711;28;20433;-67
2022/12/25 01:49:20;;;;;;;45.05;18.13;;;18.10;53.90;;;;;;5080079;28;20073;-67
2022/12/25 01:52:12;;;;;;;60.75;22.58;;;18.00;53.90;;;;;;5079384;28;20064;-66
2022/12/25 01:54:47;;;;;;;71.43;24.58;;;18.00;54.30;;;;;;5013437;28;20090;-68
2022/12/25 01:57:22;;;;;;;45.53;12.85;;;17.90;54.50;;;;;;5018400;28;20117;-67
2022/12/25 01:59:49;;;;;;;39.90;13.52;;;17.80;54.40;;;;;;5018178;28;20582;-67
2022/12/25 02:02:15;;;;;;;38.30;11.65;;;17.80;54.90;;;;;;5013146;28;20081;-68
2022/12/25 02:04:49;;;;;;;36.95;10.55;;;17.70;55.00;;;;;;5010651;28;20070;-69
2022/12/25 02:07:22;;;;;;;43.22;9.65;;;17.70;55.30;;;;;;5011929;28;20077;-67
2022/12/25 02:09:50;;;;;;;49.38;10.20;;;17.60;55.40;;;;;;5014329;28;20091;-67
2022/12/25 02:12:24;;;;;;;51.95;11.90;;;17.50;55.40;;;;;;5013213;28;20493;-68
2022/12/25 02:14:53;;;;;;;49.35;11.18;;;17.50;55.30;;;;;;5017214;28;20579;-69
2022/12/25 02:17:32;;;;;;;56.55;13.50;;;17.40;55.20;;;;;;5016733;28;20184;-64
2022/12/25 02:20:04;;;;;;;48.97;12.38;;;17.60;54.90;;;;;;4998440;28;20074;-66
2022/12/25 02:22:55;;;;;;;45.53;12.25;;;17.80;54.00;;;;;;5017518;28;20106;-64
2022/12/25 02:25:48;;;;;;;48.42;12.65;;;18.00;53.80;;;;;;5012930;28;20133;-62
2022/12/25 02:28:21;;;;;;;70.63;12.80;;;18.20;53.70;;;;;;5012033;28;20141;-62
2022/12/25 02:31:05;;;;;;;57.65;14.25;;;18.20;53.60;;;;;;5025374;28;20549;-63
2022/12/25 02:36:30;;;;;;;48.45;14.32;;;18.20;53.40;;;;;;5073646;28;20441;-64
2022/12/25 02:41:48;;;;;;;70.75;20.75;;;18.30;53.50;;;;;;5071435;28;20119;-64
2022/12/25 03:06:41;;;;;;;61.00;18.38;;;18.20;53.40;;;;;;5072742;28;20099;-61
2022/12/25 03:07:17;;;;;;;78.57;20.63;;;17.50;54.20;;;;;;5075836;28;20158;-62
2022/12/25 03:13:08;;;;;;;84.25;20.45;;;17.50;54.20;;;;;;5078055;28;20080;-64
2022/12/25 03:18:23;;;;;;;89.28;22.85;;;16.90;84.10;;;;;;5079960;28;20100;-63
2022/12/25 03:31:10;;;;;;;109.47;26.55;;;17.20;55.00;;;;;;5084797;28;20079;-64
2022/12/25 03:32:08;;;;;;;98.88;26.63;;;17.40;67.50;;;;;;5080663;28;20439;-62
2022/12/25 03:38:08;;;;;;;120.95;34.70;;;16.70;69.70;;;;;;5078216;28;20115;-65
2022/12/25 04:37:30;;;;;;;147.07;47.25;;;15.90;58.10;;;;;;5079430;28;20111;-64
2022/12/25 04:39:56;;;;;;;159.85;48.13;;;15.90;58.40;;;;;;5085467;28;20123;-64
2022/12/25 04:42:22;;;;;;;;;;;15.90;58.60;;;;;;5082965;28;20069;-61
2022/12/25 04:44:49;;;;;;;155.55;50.42;;;15.90;59.00;;;;;;5081399;28;19957;-63
2022/12/25 04:47:15;;;;;;;133.45;49.40;;;15.90;58.70;;;;;;5082418;28;20175;-62
2022/12/25 04:49:41;;;;;;;;;;;15.80;58.60;;;;;;5078235;28;20081;-62
2022/12/25 04:52:07;;;;;;;149.18;55.47;;;15.80;58.50;;;;;;5083661;28;19960;-63
2022/12/25 04:54:36;;;;;;;162.65;53.97;;;15.80;58.90;;;;;;5084609;28;20076;-63
2022/12/25 04:57:02;;;;;;;173.27;55.88;;;15.70;59.10;;;;;;5078331;28;20108;-62
2022/12/25 04:59:28;;;;;;;;;;;15.70;59.30;;;;;;5084405;28;20078;-62
2022/12/25 05:01:55;;;;;;;153.48;55.20;;;15.70;58.70;;;;;;5073359;28;19956;-61
2022/12/25 05:04:21;;;;;;;144.32;52.05;;;15.70;59.30;;;;;;5077321;28;20092;-60
2022/12/25 05:06:48;;;;;;;159.65;51.25;;;15.70;58.90;;;;;;5078741;28;20526;-62
2022/12/25 05:09:14;;;;;;;;;;;15.60;59.00;;;;;;5085105;28;20457;-61
2022/12/25 05:11:40;;;;;;;140.05;53.33;;;15.60;59.00;;;;;;5080405;28;20376;-60
2022/12/25 05:14:06;;;;;;;;;;;15.60;59.10;;;;;;5084553;28;20061;-62
2022/12/25 05:16:33;;;;;;;158.80;55.05;;;15.50;59.70;;;;;;5082192;28;19964;-63
2022/12/25 05:18:59;;;;;;;;;;;15.40;59.40;;;;;;5080905;28;20095;-64
2022/12/25 05:21:25;;;;;;;161.88;59.75;;;15.40;59.70;;;;;;5081878;28;20043;-63
2022/12/25 05:23:52;;;;;;;167.30;59.08;;;15.30;60.00;;;;;;5081711;28;20065;-62
2022/12/25 05:26:23;;;;;;;166.00;60.67;;;15.30;60.00;;;;;;5083049;28;20080;-62
2022/12/25 05:28:50;;;;;;;161.70;62.28;;;15.20;60.10;;;;;;5075313;28;20081;-63
2022/12/25 05:31:17;;;;;;;162.88;60.63;;;15.20;60.30;;;;;;5079649;28;20431;-62
2022/12/25 05:33:43;;;;;;;186.50;62.60;;;15.20;60.10;;;;;;5083134;28;20373;-64
2022/12/25 05:36:10;;;;;;;;;;;15.30;60.60;;;;;;5080026;28;20084;-66
2022/12/25 05:38:37;;;;;;;149.65;60.20;;;15.30;60.00;;;;;;5075415;28;20026;-61
2022/12/25 05:41:04;;;;;;;144.25;56.78;;;15.30;59.10;;;;;;5078169;28;20076;-64
2022/12/25 05:43:31;;;;;;;143.15;57.35;;;15.20;58.70;;;;;;5084035;28;20108;-61
2022/12/25 05:45:57;;;;;;;;;;;15.20;58.50;;;;;;5073719;28;20069;-63
2022/12/25 05:48:23;;;;;;;134.50;51.47;;;15.20;58.40;;;;;;5079115;28;19980;-64
2022/12/25 05:50:49;;;;;;;;;;;15.20;58.40;;;;;;5077421;28;20095;-62
2022/12/25 05:53:16;;;;;;;135.70;49.85;;;15.20;58.20;;;;;;5074173;28;19953;-62
2022/12/25 05:55:43;;;;;;;139.27;49.97;;;15.20;57.80;;;;;;5077903;28;20069;-63
2022/12/25 05:58:11;;;;;;;139.23;49.28;;;15.10;58.50;;;;;;5080938;28;20089;-63
2022/12/25 06:00:38;;;;;;;140.73;48.40;;;15.10;58.80;;;;;;5082683;28;20139;-64
2022/12/25 06:03:04;;;;;;;130.35;48.38;;;15.10;58.70;;;;;;5082700;28;20527;-65
2022/12/25 06:05:31;;;;;;;;;;;15.10;58.60;;;;;;5081975;28;20085;-63
2022/12/25 06:07:57;;;;;;;124.10;46.88;;;15.10;58.60;;;;;;5075105;28;19957;-65
2022/12/25 06:10:24;;;;;;;121.00;47.67;;;15.00;58.70;;;;;;5076197;28;20092;-64
2022/12/25 06:12:50;;;;;;;;;;;15.00;59.30;;;;;;5085325;28;20103;-64
2022/12/25 06:15:16;;;;;;;120.25;48.15;;;14.90;58.40;;;;;;5078478;28;19957;-63
2022/12/25 06:17:42;;;;;;;;;;;14.90;58.30;;;;;;5078016;28;20562;-62
2022/12/25 06:20:09;;;;;;;142.50;49.22;;;14.80;58.70;;;;;;5083514;28;19956;-64
2022/12/25 06:22:35;;;;;;;123.88;47.75;;;14.80;58.70;;;;;;5080337;28;20155;-65
2022/12/25 06:25:02;;;;;;;137.75;47.85;;;14.80;58.70;;;;;;5075982;28;20069;-62
2022/12/25 06:27:28;;;;;;;;;;;14.70;59.30;;;;;;5080547;28;20096;-63
2022/12/25 06:29:54;;;;;;;121.40;48.63;;;14.70;59.50;;;;;;5081120;28;20011;-61
2022/12/25 06:32:20;;;;;;;;;;;14.70;59.30;;;;;;5073100;28;20168;-61
2022/12/25 06:34:47;;;;;;;138.95;51.90;;;14.60;59.50;;;;;;5075396;28;20473;-62
2022/12/25 06:37:14;;;;;;;151.05;57.35;;;14.50;60.20;;;;;;5079483;28;20145;-62
2022/12/25 06:39:40;;;;;;;;;;;14.40;60.20;;;;;;5078302;28;20466;-60
2022/12/25 06:42:06;;;;;;;136.18;50.55;;;14.40;60.60;;;;;;5075356;28;19961;-60
2022/12/25 06:44:32;;;;;;;;;;;14.30;60.20;;;;;;5079958;28;20096;-60
2022/12/25 06:46:59;;;;;;;142.05;50.75;;;14.30;72.00;;;;;;5079749;28;19971;-61
2022/12/25 06:49:25;;;;;;;;;;;14.30;60.30;;;;;;5077390;28;20095;-60
2022/12/25 06:51:51;;;;;;;112.40;50.35;;;14.30;60.50;;;;;;5082808;28;19960;-60
2022/12/25 06:54:17;;;;;;;;;;;14.20;59.80;;;;;;5073559;28;20087;-60
2022/12/25 06:56:43;;;;;;;118.68;52.30;;;14.20;59.00;;;;;;5075216;28;19988;-61
2022/12/25 06:59:09;;;;;;;;;;;14.20;58.80;;;;;;5078188;28;20560;-62
2022/12/25 07:01:56;;;;;;;124.05;54.05;;;14.20;58.40;;;;;;5079712;28;20007;-59
2022/12/25 07:04:36;;;;;;;119.20;54.63;;;14.20;58.10;;;;;;5079417;28;20068;-62
2022/12/25 07:07:04;;;;;;;101.63;51.05;;;14.10;57.80;;;;;;5074354;28;20064;-62
2022/12/25 07:09:32;;;;;;;104.97;48.30;;;14.20;58.10;;;;;;5074780;28;20065;-62
2022/12/25 07:12:12;;;;;;;104.40;46.33;;;14.20;57.70;;;;;;5076915;28;20429;-62
2022/12/25 07:14:39;;;;;;;93.53;39.78;;;14.20;57.40;;;;;;5076686;28;20088;-60
2022/12/25 07:17:05;;;;;;;83.78;34.53;;;14.10;57.00;;;;;;5076023;28;20092;-60
2022/12/25 07:19:31;;;;;;;;;;;14.20;56.80;;;;;;5080103;28;20077;-61
2022/12/25 07:21:58;;;;;;;60.42;26.33;;;14.00;75.10;;;;;;5079903;28;19964;-61
2022/12/25 07:24:24;;;;;;;55.10;23.10;;;14.00;62.10;;;;;;5078016;28;20103;-61
2022/12/25 07:26:51;;;;;;;52.20;19.05;;;14.30;77.70;;;;;;5080036;28;20605;-61
2022/12/25 07:29:21;;;;;;;43.00;17.08;;;14.10;54.90;;;;;;5075533;28;20781;-60
2022/12/25 07:31:47;;;;;;;43.10;16.67;;;14.40;62.30;;;;;;5078071;28;20069;-59
2022/12/25 07:34:15;;;;;;;;;;;14.10;54.20;;;;;;5080137;28;20114;-60
2022/12/25 07:36:41;;;;;;;25.63;12.02;;;14.30;77.70;;;;;;5079853;28;20472;-61
2022/12/25 07:39:09;;;;;;;;;;;14.30;53.50;;;;;;5077644;28;20112;-62
2022/12/25 07:41:35;;;;;;;21.80;10.32;;;14.40;53.20;;;;;;5079983;28;19971;-62
2022/12/25 07:44:02;;;;;;;18.00;7.55;;;14.60;74.90;;;;;;5079278;28;20072;-62
2022/12/25 07:46:28;;;;;;;;;;;14.40;52.00;;;;;;5074270;28;20072;-62
2022/12/25 07:48:54;;;;;;;17.50;6.53;;;14.30;66.50;;;;;;5081037;28;19973;-59
2022/12/25 07:51:21;;;;;;;16.48;6.97;;;15.10;70.00;;;;;;5070630;28;20426;-61
2022/12/25 07:53:47;;;;;;;14.18;6.28;;;14.70;71.70;;;;;;5077139;28;20077;-62
2022/12/25 07:56:19;;;;;;;14.95;6.07;;;14.80;70.40;;;;;;5077562;28;20527;-60
2022/12/25 07:58:47;;;;;;;12.63;5.55;;;14.70;51.10;;;;;;5079244;28;20568;-60
2022/12/25 08:01:18;;;;;;;17.35;6.90;;;14.70;50.70;;;;;;5076718;28;20075;-62
2022/12/25 08:03:59;;;;;;;17.23;8.48;;;14.70;50.90;;;;;;5078848;28;20088;-61
2022/12/25 08:06:31;;;;;;;15.38;7.68;;;14.40;51.40;;;;;;5079454;28;20076;-61
2022/12/25 08:09:08;;;;;;;16.55;7.93;;;14.70;51.60;;;;;;5073862;28;20079;-65
2022/12/25 08:11:35;;;;;;;17.52;7.38;;;14.70;51.90;;;;;;5078751;28;20083;-60
2022/12/25 08:14:04;;;;;;;14.68;7.80;;;14.60;69.10;;;;;;5078432;28;20102;-62
2022/12/25 08:16:33;;;;;;;16.27;6.57;;;14.50;52.20;;;;;;5078480;28;20222;-62
2022/12/25 08:19:00;;;;;;;29.02;7.35;;;14.50;51.70;;;;;;5081300;28;20179;-59
2022/12/25 08:21:26;;;;;;;19.55;7.43;;;14.50;60.10;;;;;;5081960;28;20119;-60
2022/12/25 08:23:52;;;;;;;;;;;14.50;51.70;;;;;;5081984;28;20525;-60
2022/12/25 08:26:21;;;;;;;21.50;7.97;;;14.40;51.90;;;;;;5081191;28;19960;-63
2022/12/25 08:28:48;;;;;;;21.02;9.60;;;14.40;52.50;;;;;;5080127;28;20476;-61
2022/12/25 08:31:18;;;;;;;21.10;9.43;;;14.30;52.20;;;;;;5080867;28;20075;-62
2022/12/25 08:33:45;;;;;;;19.90;9.50;;;14.20;52.60;;;;;;5077668;28;20538;-61
2022/12/25 08:36:12;;;;;;;18.08;8.70;;;14.30;73.20;;;;;;5076139;28;20115;-62
2022/12/25 08:38:39;;;;;;;22.42;10.60;;;14.00;52.10;;;;;;5079584;28;20168;-60
2022/12/25 08:41:07;;;;;;;22.02;10.65;;;13.90;71.70;;;;;;5079538;28;20093;-60
2022/12/25 08:43:33;;;;;;;24.70;12.63;;;14.00;51.70;;;;;;5076475;28;20494;-62
2022/12/25 08:45:59;;;;;;;;;;;14.00;52.30;;;;;;5074779;28;20068;-61
2022/12/25 08:48:25;;;;;;;26.75;13.20;;;13.90;72.70;;;;;;5080491;28;19979;-62
2022/12/25 08:50:52;;;;;;;35.97;16.25;;;13.40;77.90;;;;;;5077182;28;20068;-61
2022/12/25 08:53:19;;;;;;;32.28;16.02;;;13.80;52.60;;;;;;5080072;28;20556;-62
2022/12/25 08:55:46;;;;;;;29.65;15.10;;;13.80;53.20;;;;;;5080773;28;20092;-61
2022/12/25 08:58:16;;;;;;;31.67;14.38;;;13.70;79.00;;;;;;5081032;28;20108;-63
2022/12/25 09:00:42;;;;;;;30.00;14.30;;;13.70;52.80;;;;;;5077513;28;20085;-61
2022/12/25 09:03:09;;;;;;;30.73;14.05;;;13.70;53.20;;;;;;5080269;28;20089;-61
2022/12/25 09:05:36;;;;;;;31.08;14.18;;;14.10;71.30;;;;;;5078773;28;20483;-60
2022/12/25 09:08:02;;;;;;;24.67;12.40;;;13.70;53.60;;;;;;5076090;28;20438;-61
2022/12/25 09:10:29;;;;;;;26.30;11.80;;;13.70;53.80;;;;;;5077100;28;20069;-61
2022/12/25 09:12:56;;;;;;;22.90;11.25;;;13.70;54.20;;;;;;5077511;28;20122;-60
2022/12/25 09:15:22;;;;;;;26.17;11.88;;;13.60;54.70;;;;;;5079990;28;20093;-61
2022/12/25 09:17:48;;;;;;;;;;;13.50;54.20;;;;;;5076282;28;20111;-62
2022/12/25 09:20:15;;;;;;;20.10;11.30;;;13.40;79.60;;;;;;5077618;28;20042;-62
2022/12/25 09:22:41;;;;;;;18.40;8.77;;;13.40;54.70;;;;;;5077924;28;20064;-61
2022/12/25 09:25:07;;;;;;;;;;;13.50;53.30;;;;;;5076980;28;20070;-61
2022/12/25 09:27:34;;;;;;;18.13;7.57;;;13.50;52.00;;;;;;5077117;28;20047;-62
2022/12/25 09:30:00;;;;;;;;;;;13.60;51.60;;;;;;5075281;28;20163;-61
2022/12/25 09:32:26;;;;;;;49.72;19.77;;;13.60;52.20;;;;;;5077078;28;20404;-62
2022/12/25 09:34:52;;;;;;;46.47;20.50;;;13.60;52.60;;;;;;5082510;28;20160;-62
2022/12/25 09:37:18;;;;;;;;;;;13.60;52.20;;;;;;5078388;28;20111;-61
2022/12/25 09:39:45;;;;;;;28.95;11.52;;;13.60;52.60;;;;;;5075330;28;19964;-59
2022/12/25 09:42:14;;;;;;;;;;;13.60;52.30;;;;;;5081292;28;20078;-60
2022/12/25 09:44:46;;;;;;;24.55;9.60;;;13.60;52.70;;;;;;5079051;28;19965;-62
2022/12/25 09:47:24;;;;;;;19.77;7.97;;;13.50;52.70;;;;;;5075904;28;20096;-61
2022/12/25 09:50:37;;;;;;;15.10;6.88;;;13.40;53.10;;;;;;5079399;28;20108;-62
2022/12/25 09:53:23;;;;;;;14.02;5.32;;;13.40;52.80;;;;;;5069259;28;20092;-61
2022/12/25 09:56:03;;;;;;;14.93;5.50;;;13.30;52.90;;;;;;5078668;28;20549;-62
2022/12/25 09:58:31;;;;;;;13.85;5.32;;;13.30;53.60;;;;;;5079239;28;20099;-63
2022/12/25 10:01:19;;;;;;;13.93;5.68;;;13.30;54.00;;;;;;5080242;28;20441;-63
2022/12/25 10:04:07;;;;;;;24.80;6.97;;;13.30;54.20;;;;;;5075153;28;20092;-62
2022/12/25 10:07:00;;;;;;;22.88;11.85;;;13.20;54.00;;;;;;5076268;28;20076;-61
2022/12/25 10:09:41;;;;;;;22.90;10.55;;;13.10;54.20;;;;;;5071549;28;20064;-62
2022/12/25 10:12:55;;;;;;;20.10;9.43;;;13.10;54.30;;;;;;5072562;28;20151;-61
2022/12/25 10:16:02;;;;;;;22.02;11.48;;;13.20;53.90;;;;;;5009093;28;20537;-63
2022/12/25 10:18:37;;;;;;;20.92;9.57;;;13.20;54.10;;;;;;5049383;28;20100;-63
2022/12/25 10:21:08;;;;;;;17.83;8.15;;;13.30;54.10;;;;;;5073568;28;20414;-60
2022/12/25 10:24:16;;;;;;;15.90;8.45;;;13.30;54.10;;;;;;5075518;28;20082;-62
2022/12/25 10:26:44;;;;;;;13.52;6.30;;;13.20;54.50;;;;;;5076209;28;20073;-61
2022/12/25 10:29:16;;;;;;;20.98;6.55;;;13.20;54.60;;;;;;5073417;28;20077;-60
2022/12/25 10:31:46;;;;;;;17.65;8.25;;;13.20;55.10;;;;;;5082636;28;20156;-62
2022/12/25 10:34:14;;;;;;;16.40;8.25;;;13.20;54.90;;;;;;5073765;28;20153;-59
2022/12/25 10:36:43;;;;;;;20.83;9.80;;;13.20;55.30;;;;;;5076213;28;20077;-61
2022/12/25 10:39:18;;;;;;;31.33;11.85;;;13.10;55.80;;;;;;5077649;28;20096;-61
2022/12/25 10:42:08;;;;;;;22.20;9.98;;;13.10;55.60;;;;;;5076401;28;20072;-62
2022/12/25 10:44:35;;;;;;;21.10;7.70;;;13.00;56.30;;;;;;5073929;28;20088;-63
2022/12/25 10:47:04;;;;;;;19.73;9.55;;;13.00;55.30;;;;;;5076538;28;20081;-60
2022/12/25 10:49:37;;;;;;;21.40;11.82;;;12.90;55.50;;;;;;5074571;28;20076;-63
2022/12/25 10:52:19;;;;;;;27.23;10.90;;;12.90;55.60;;;;;;5076604;28;20077;-62
2022/12/25 10:54:45;;;;;;;32.20;11.02;;;12.90;56.50;;;;;;5076605;28;20069;-61
2022/12/25 10:57:15;;;;;;;;;;;12.70;56.40;;;;;;5073742;28;20200;-61
2022/12/25 10:59:47;;;;;;;22.63;10.65;;;12.60;56.70;;;;;;5078358;28;19965;-63
2022/12/25 11:02:28;;;;;;;23.38;8.15;;;12.50;57.70;;;;;;5072081;28;20534;-60
2022/12/25 11:05:02;;;;;;;16.27;7.63;;;12.50;57.40;;;;;;5075648;28;20081;-61
2022/12/25 11:07:28;;;;;;;14.82;6.80;;;12.40;57.70;;;;;;5076373;28;20074;-61
2022/12/25 11:10:04;;;;;;;18.35;6.57;;;12.40;57.90;;;;;;5077116;28;20073;-63
2022/12/25 11:12:43;;;;;;;14.00;5.95;;;12.40;57.70;;;;;;5073546;28;20076;-60
2022/12/25 11:15:38;;;;;;;14.55;6.40;;;12.40;57.90;;;;;;5076281;28;20083;-61
2022/12/25 11:18:20;;;;;;;14.10;6.07;;;12.40;58.30;;;;;;5066054;28;20136;-61
2022/12/25 11:20:54;;;;;;;14.88;6.32;;;12.40;58.40;;;;;;5073319;28;20088;-60
2022/12/25 11:23:23;;;;;;;14.32;5.88;;;12.30;58.30;;;;;;5076950;28;20085;-60
2022/12/25 11:26:07;;;;;;;14.10;6.82;;;12.20;59.10;;;;;;5076728;28;20065;-59
2022/12/25 11:28:36;;;;;;;16.08;7.05;;;12.10;59.40;;;;;;5078389;28;20076;-60
2022/12/25 11:31:11;;;;;;;22.65;8.57;;;12.10;59.30;;;;;;5079518;28;20155;-61
2022/12/25 11:33:49;;;;;;;24.42;10.13;;;12.10;59.70;;;;;;5075399;28;20421;-62
2022/12/25 11:36:47;;;;;;;24.02;11.13;;;11.90;59.80;;;;;;5083292;28;20521;-62
2022/12/25 11:39:24;;;;;;;25.75;14.10;;;12.00;59.90;;;;;;5073875;28;20476;-62
2022/12/25 11:42:15;;;;;;;38.92;16.98;;;12.00;60.00;;;;;;5080830;28;20089;-62
2022/12/25 11:44:52;;;;;;;32.90;17.05;;;12.00;60.00;;;;;;5079571;28;20532;-62
2022/12/25 11:47:30;;;;;;;33.97;17.58;;;12.00;60.00;;;;;;5077137;28;20115;-61
2022/12/25 11:50:22;;;;;;;34.88;17.67;;;12.00;60.30;;;;;;5075417;28;20068;-62
2022/12/25 11:52:50;;;;;;;41.47;17.67;;;12.00;60.50;;;;;;5073132;28;20126;-63
2022/12/25 11:55:16;;;;;;;37.78;17.02;;;11.50;92.60;;;;;;5078785;28;20543;-61
2022/12/25 11:57:44;;;;;;;;;;;11.80;61.10;;;;;;5079246;28;21633;-62
2022/12/25 12:00:15;;;;;;;35.00;15.50;;;11.70;61.60;;;;;;5075895;28;19968;-63
2022/12/25 12:02:47;;;;;;;40.92;16.92;;;11.70;61.90;;;;;;5074826;28;20073;-60
2022/12/25 12:05:16;;;;;;;35.35;18.63;;;11.60;62.60;;;;;;5084451;28;20141;-61
2022/12/25 12:07:59;;;;;;;49.03;22.10;;;11.60;62.40;;;;;;5079699;28;20118;-62
2022/12/25 12:10:25;;;;;;;51.50;22.65;;;;;;;;;;5075833;28;20069;-61
2022/12/25 12:13:16;;;;;;;57.50;22.17;;;11.50;93.60;;;;;;5078116;28;20100;-61
2022/12/25 12:15:47;;;;;;;58.58;22.55;;;12.10;98.20;;;;;;5055258;28;20081;-60
2022/12/25 12:18:29;;;;;;;48.35;22.42;;;11.50;62.40;;;;;;5076626;28;20092;-62
2022/12/25 12:21:04;;;;;;;60.38;23.00;;;11.60;61.80;;;;;;5077514;28;20599;-61
2022/12/25 12:23:36;;;;;;;42.30;21.77;;;11.60;61.70;;;;;;5077954;28;20079;-60
2022/12/25 12:26:03;;;;;;;52.25;21.70;;;11.70;61.80;;;;;;5075090;28;20083;-61
2022/12/25 12:28:43;;;;;;;49.65;22.55;;;11.70;62.50;;;;;;5074826;28;20093;-61
2022/12/25 12:31:09;;;;;;;50.67;22.25;;;11.70;62.30;;;;;;5076667;28;20097;-61
2022/12/25 12:33:47;;;;;;;53.65;22.52;;;11.70;62.80;;;;;;5078869;28;20080;-62
2022/12/25 12:36:15;;;;;;;53.60;23.13;;;11.50;62.00;;;;;;5077771;28;20076;-61
2022/12/25 12:38:43;;;;;;;55.90;28.00;;;11.30;90.30;;;;;;5076373;28;20092;-62
2022/12/25 12:41:13;;;;;;;58.50;28.48;;;11.50;62.50;;;;;;5075937;28;20072;-62
2022/12/25 12:43:41;;;;;;;60.78;29.52;;;11.50;62.80;;;;;;5077532;28;20093;-61
2022/12/25 12:46:24;;;;;;;59.58;30.83;;;11.50;62.80;;;;;;5076879;28;20407;-61
2022/12/25 12:48:53;;;;;;;72.35;31.58;;;11.50;62.90;;;;;;5076291;28;21172;-61
2022/12/25 12:51:35;;;;;;;55.70;30.35;;;11.60;87.00;;;;;;5078052;28;20099;-61
2022/12/25 12:54:26;;;;;;;68.82;33.63;;;11.60;88.10;;;;;;5081602;28;20080;-60
2022/12/25 12:57:06;;;;;;;62.72;34.45;;;11.30;62.20;;;;;;5075186;28;20116;-60
2022/12/25 12:59:45;;;;;;;73.55;34.78;;;11.60;77.40;;;;;;5078034;28;20080;-61
2022/12/25 13:02:43;;;;;;;65.68;34.42;;;11.20;63.30;;;;;;5080500;28;20068;-60
2022/12/25 13:05:34;;;;;;;62.63;33.53;;;11.30;62.90;;;;;;5078293;28;20061;-61
2022/12/25 13:08:13;;;;;;;70.57;37.83;;;11.00;91.40;;;;;;5074103;28;20129;-61
2022/12/25 13:10:47;;;;;;;74.35;39.00;;;11.20;63.50;;;;;;5075217;28;20150;-59
2022/12/25 13:13:39;;;;;;;81.80;40.03;;;11.20;63.60;;;;;;5075644;28;20437;-61
2022/12/25 13:16:12;;;;;;;71.68;38.90;;;11.30;64.20;;;;;;5078395;28;20088;-61
2022/12/25 13:18:39;;;;;;;78.22;39.35;;;11.60;91.70;;;;;;5079952;28;20498;-61
2022/12/25 13:21:05;;;;;;;87.20;39.60;;;11.20;64.60;;;;;;5078466;28;20076;-62
2022/12/25 13:23:34;;;;;;;81.88;39.92;;;11.20;64.30;;;;;;5073567;28;20537;-61
2022/12/25 13:26:04;;;;;;;71.95;37.30;;;11.10;65.20;;;;;;5080669;28;20151;-61
2022/12/25 13:28:33;;;;;;;68.18;38.50;;;11.20;65.20;;;;;;5075946;28;20130;-61
2022/12/25 13:31:14;;;;;;;77.40;38.10;;;11.20;65.10;;;;;;5077423;28;20113;-61
2022/12/25 13:34:04;;;;;;;71.25;36.72;;;11.20;66.00;;;;;;5081013;28;20114;-61
2022/12/25 13:36:37;;;;;;;80.53;38.10;;;11.20;65.50;;;;;;5076391;28;20187;-61
2022/12/25 13:39:07;;;;;;;87.65;40.10;;;11.20;82.10;;;;;;5072780;28;20088;-61
2022/12/25 13:44:31;;;;;;;80.43;37.28;;;11.10;66.10;;;;;;5077209;28;20100;-62
2022/12/25 13:47:19;;;;;;;81.88;38.60;;;10.40;83.00;;;;;;5073859;28;20095;-61
2022/12/25 13:49:47;;;;;;;82.85;37.15;;;10.80;83.50;;;;;;5076373;28;20087;-61
2022/12/25 13:52:16;;;;;;;83.20;38.00;;;10.90;66.30;;;;;;5074410;28;20077;-62
2022/12/25 13:55:00;;;;;;;75.85;37.67;;;10.50;87.80;;;;;;5076912;28;20076;-61
2022/12/25 13:57:34;;;;;;;70.53;35.10;;;10.70;90.40;;;;;;5075646;28;20135;-61
2022/12/25 14:00:01;;;;;;;60.70;34.83;;;10.80;90.30;;;;;;5075201;28;20065;-62
2022/12/25 14:02:34;;;;;;;74.03;36.92;;;10.40;90.10;;;;;;5076548;28;20104;-61
2022/12/25 14:05:01;;;;;;;66.30;37.05;;;11.10;91.00;;;;;;5078118;28;20069;-62
2022/12/25 14:07:28;;;;;;;68.38;34.78;;;10.90;93.60;;;;;;5073300;28;20077;-62
2022/12/25 14:10:02;;;;;;;79.95;37.70;;;10.40;92.50;;;;;;5077970;28;20065;-60
2022/12/25 14:12:30;;;;;;;64.03;36.72;;;11.10;94.40;;;;;;5073557;28;20077;-61
2022/12/25 14:14:58;;;;;;;63.90;36.20;;;10.80;73.60;;;;;;5080283;28;20068;-61
2022/12/25 14:17:25;;;;;;;77.28;36.45;;;11.40;90.80;;;;;;5075824;28;20092;-63
2022/12/25 14:19:59;;;;;;;75.97;37.55;;;10.70;68.20;;;;;;5073763;28;20210;-59
2022/12/25 14:22:27;;;;;;;67.05;38.28;;;10.50;93.60;;;;;;5079205;28;20145;-61
2022/12/25 14:24:53;;;;;;;71.07;39.78;;;10.60;95.70;;;;;;5074864;28;20065;-60
2022/12/25 14:27:27;;;;;;;82.60;39.40;;;10.50;68.90;;;;;;5075179;28;20074;-62
2022/12/25 14:29:58;;;;;;;76.07;41.83;;;10.20;96.80;;;;;;5075552;28;20095;-60
2022/12/25 14:32:29;;;;;;;82.30;39.67;;;10.60;88.70;;;;;;5076733;28;20073;-62
2022/12/25 14:34:59;;;;;;;86.90;39.58;;;10.60;94.80;;;;;;5074992;28;20563;-60
2022/12/25 14:37:28;;;;;;;62.67;38.72;;;10.40;69.70;;;;;;5076101;28;20101;-61
2022/12/25 14:40:00;;;;;;;67.25;40.33;;;10.30;70.30;;;;;;5075440;28;20073;-63
2022/12/25 14:42:30;;;;;;;76.32;40.40;;;10.50;70.20;;;;;;5076427;28;20073;-60
2022/12/25 14:44:58;;;;;;;75.95;37.42;;;10.10;95.40;;;;;;5070457;28;20069;-60
2022/12/25 14:47:25;;;;;;;76.63;37.70;;;10.50;69.90;;;;;;5078542;28;20088;-61